Time;durP1;ratioP1;P1;durP2;ratioP2;P2;SDS_P1;SDS_P2;PMS_P1;PMS_P2;Temp;Humidity;BMP_temperature;BMP_pressure;BME280_temperature;BME280_humidity;BME280_pressure;Samples;Min_cycle;Max_cycle;Signal;HPM_P1;HPM_P2
2022/11/05 00:09:32;;;;;;;20.95;14.82;;;;;;;7.15;100.00;100644.25;687645;28;1414;-64
2022/11/05 00:09:59;;;;;;;20.02;15.30;;;;;;;7.16;100.00;100639.94;687239;28;4881;-64
2022/11/05 00:10:23;;;;;;;18.33;15.10;;;;;;;7.17;100.00;100641.66;687454;28;1429;-64
2022/11/05 00:10:44;;;;;;;19.85;15.13;;;;;;;7.15;100.00;100640.78;687289;28;1238;-64
2022/11/05 00:11:04;;;;;;;20.23;15.67;;;;;;;7.12;100.00;100644.22;687789;28;1060;-64
2022/11/05 00:16:42;;;;;;;20.80;15.02;;;;;;;7.11;100.00;100641.63;687466;28;1033;-64
2022/11/05 00:16:46;;;;;;;20.05;14.77;;;;;;;7.08;100.00;100645.06;687160;28;1510;-63
2022/11/05 00:17:06;;;;;;;19.27;14.88;;;;;;;7.05;100.00;100644.16;687460;28;1191;-64
2022/11/05 00:17:27;;;;;;;20.00;14.97;;;;;;;7.05;100.00;100637.25;687799;28;1965;-64
2022/11/05 00:17:47;;;;;;;19.80;14.95;;;;;;;7.03;100.00;100635.47;687674;28;1096;-64
2022/11/05 00:18:08;;;;;;;19.17;15.10;;;;;;;7.01;100.00;100645.88;687199;28;1305;-64
2022/11/05 00:18:28;;;;;;;20.27;14.77;;;;;;;7.01;100.00;100639.81;687522;28;1167;-64
2022/11/05 00:19:05;;;;;;;19.88;14.75;;;;;;;6.99;100.00;100639.75;686461;28;4390;-64
2022/11/05 00:19:25;;;;;;;21.70;14.13;;;;;;;6.94;100.00;100644.94;687023;28;1201;-64
2022/11/05 00:19:45;;;;;;;19.53;14.37;;;;;;;6.93;100.00;100647.53;687511;28;1259;-64
2022/11/05 00:20:08;;;;;;;18.20;14.77;;;;;;;6.91;100.00;100644.91;687411;28;3730;-64
2022/11/05 00:20:29;;;;;;;20.10;14.93;;;;;;;6.90;100.00;100640.56;687505;28;1234;-64
2022/11/05 00:20:49;;;;;;;20.50;14.98;;;;;;;6.89;100.00;100636.22;687670;28;1472;-64
2022/11/05 00:25:13;;;;;;;17.90;14.10;;;;;;;6.73;100.00;100645.59;684330;28;4831;-64
2022/11/05 00:25:33;;;;;;;17.73;14.00;;;;;;;6.73;100.00;100639.50;683991;28;1276;-64
2022/11/05 00:25:55;;;;;;;17.47;14.07;;;;;;;6.75;100.00;100641.28;684505;28;1227;-64
2022/11/05 00:26:16;;;;;;;19.90;15.07;;;;;;;6.76;100.00;100636.97;684734;28;1144;-64
2022/11/05 00:26:36;;;;;;;21.67;14.93;;;;;;;6.77;100.00;100631.78;683734;28;1409;-64
2022/11/05 00:26:56;;;;;;;17.77;13.63;;;;;;;6.82;100.00;100642.22;686828;28;1200;-64
2022/11/05 00:27:17;;;;;;;18.23;14.10;;;;;;;6.85;100.00;100639.63;686222;28;1263;-64
2022/11/05 00:27:37;;;;;;;19.00;14.23;;;;;;;6.85;100.00;100642.22;684635;28;1255;-64
2022/11/05 00:28:01;;;;;;;18.63;14.40;;;;;;;6.84;100.00;100639.63;684482;28;4673;-64
2022/11/05 00:28:21;;;;;;;20.02;14.60;;;;;;;6.82;100.00;100635.28;684470;28;1144;-64
2022/11/05 00:28:43;;;;;;;19.73;14.23;;;;;;;6.84;100.00;100643.09;685182;28;1148;-64
2022/11/05 00:29:03;;;;;;;18.58;14.15;;;;;;;6.88;100.00;100639.69;687425;28;1124;-64
2022/11/05 00:29:24;;;;;;;18.70;14.07;;;;;;;6.93;100.00;100639.72;687566;28;1346;-64
2022/11/05 00:29:44;;;;;;;19.13;13.87;;;;;;;6.93;100.00;100637.13;690307;28;1162;-64
2022/11/05 00:30:08;;;;;;;17.17;13.38;;;;;;;6.95;100.00;100644.09;690150;28;1187;-64
2022/11/05 00:30:30;;;;;;;19.38;13.85;;;;;;;6.99;100.00;100640.66;687374;28;1924;-64
2022/11/05 00:30:51;;;;;;;18.57;14.17;;;;;;;6.99;100.00;100643.25;686684;28;4412;-64
2022/11/05 00:31:12;;;;;;;17.93;13.50;;;;;;;6.99;100.00;100637.16;687304;28;1669;-64
2022/11/05 00:31:33;;;;;;;17.25;13.45;;;;;;;6.97;100.00;100644.94;686927;28;1294;-63
2022/11/05 00:31:53;;;;;;;17.35;13.95;;;;;;;6.94;100.00;100641.47;687792;28;1400;-64
2022/11/05 00:32:13;;;;;;;17.10;13.60;;;;;;;6.91;100.00;100649.22;687335;28;1267;-64
2022/11/05 00:32:34;;;;;;;16.70;13.33;;;;;;;6.92;100.00;100650.97;687700;28;1144;-64
2022/11/05 00:33:00;;;;;;;16.95;12.77;;;;;;;6.93;100.00;100644.91;687199;28;1294;-64
2022/11/05 00:33:20;;;;;;;17.85;13.27;;;;;;;6.92;100.00;100645.78;687511;28;1524;-64
2022/11/05 00:33:42;;;;;;;18.93;14.07;;;;;;;6.89;100.00;100649.19;686725;28;4420;-64
2022/11/05 00:34:02;;;;;;;20.38;14.57;;;;;;;6.89;100.00;100635.34;687632;28;1180;-64
2022/11/05 00:34:22;;;;;;;19.30;14.43;;;;;;;6.88;100.00;100644.00;687326;28;1303;-63
2022/11/05 00:34:43;;;;;;;18.63;13.98;;;;;;;6.87;100.00;100644.84;687691;28;1096;-64
2022/11/05 00:35:05;;;;;;;17.73;13.40;;;;;;;6.88;100.00;100646.59;687634;28;1099;-64
2022/11/05 00:35:26;;;;;;;19.02;13.80;;;;;;;6.89;100.00;100651.81;685764;28;1960;-63
2022/11/05 00:35:46;;;;;;;17.73;13.77;;;;;;;6.89;100.00;100650.94;686237;28;1274;-64
2022/11/05 00:36:08;;;;;;;16.57;13.80;;;;;;;6.88;100.00;100646.59;687734;28;1048;-64
2022/11/05 00:36:29;;;;;;;17.95;13.63;;;;;;;6.85;100.00;100649.16;687221;28;1365;-64
2022/11/05 00:36:49;;;;;;;17.73;13.50;;;;;;;6.82;100.00;100648.25;685320;28;4322;-64
2022/11/05 00:37:10;;;;;;;17.77;13.40;;;;;;;6.81;100.00;100651.75;684855;28;1140;-64
2022/11/05 00:37:30;;;;;;;17.90;13.70;;;;;;;6.78;100.00;100651.72;684614;28;2266;-64
2022/11/05 00:37:52;;;;;;;16.80;13.33;;;;;;;6.77;100.00;100656.88;684730;28;1218;-64
2022/11/05 00:38:13;;;;;;;17.88;13.75;;;;;;;6.73;100.00;100645.59;685656;28;1444;-64
2022/11/05 00:38:33;;;;;;;17.90;13.20;;;;;;;6.72;100.00;100651.63;685567;28;1255;-64
2022/11/05 00:38:54;;;;;;;19.50;13.30;;;;;;;6.68;100.00;100647.25;685049;28;5150;-64
2022/11/05 00:39:14;;;;;;;17.20;13.27;;;;;;;6.67;100.00;100655.03;684932;28;1247;-64
2022/11/05 00:39:34;;;;;;;18.10;13.50;;;;;;;6.72;100.00;100654.22;683151;28;1590;-64
2022/11/05 00:39:55;;;;;;;17.60;13.40;;;;;;;6.77;100.00;100655.16;683697;28;4264;-64
2022/11/05 00:40:15;;;;;;;16.67;13.17;;;;;;;6.76;100.00;100653.41;684548;28;1232;-64
2022/11/05 00:40:36;;;;;;;16.23;13.23;;;;;;;6.74;100.00;100654.25;684684;28;1326;-64
2022/11/05 00:40:57;;;;;;;17.40;13.25;;;;;;;6.68;100.00;100660.25;684305;28;1306;-64
2022/11/05 00:41:17;;;;;;;17.30;13.80;;;;;;;6.65;100.00;100662.81;684458;28;1406;-64
2022/11/05 00:41:38;;;;;;;17.48;13.77;;;;;;;6.67;100.00;100655.91;683844;28;1295;-64
2022/11/05 00:45:20;;;;;;;17.70;13.80;;;;;;;6.47;100.00;100673.88;687298;28;1163;-64
2022/11/05 00:45:40;;;;;;;17.98;13.60;;;;;;;6.49;100.00;100672.13;686711;28;4562;-64
2022/11/05 00:46:00;;;;;;;17.80;13.67;;;;;;;6.50;100.00;100673.91;686994;28;1558;-64
2022/11/05 00:46:22;;;;;;;18.50;14.27;;;;;;;6.48;100.00;100673.88;687078;28;1191;-64
2022/11/05 00:46:42;;;;;;;19.08;13.90;;;;;;;6.47;100.00;100671.28;683772;28;1100;-64
2022/11/05 00:49:39;;;;;;;17.90;13.52;;;;;;;6.70;100.00;100681.94;688463;28;1460;-64
2022/11/05 00:49:59;;;;;;;18.10;13.68;;;;;;;6.73;100.00;100678.47;687881;28;1247;-64
2022/11/05 00:50:21;;;;;;;15.77;12.63;;;;;;;6.74;100.00;100678.53;686917;28;1457;-64
2022/11/05 00:50:41;;;;;;;17.30;13.65;;;;;;;6.76;100.00;100681.13;687600;28;1112;-64
2022/11/05 00:51:04;;;;;;;17.37;13.23;;;;;;;6.73;100.00;100676.78;687645;28;993;-64
2022/11/05 00:51:24;;;;;;;17.58;13.88;;;;;;;6.73;100.00;100687.16;687524;28;1286;-63
2022/11/05 00:51:45;;;;;;;17.33;13.30;;;;;;;6.68;100.00;100686.22;686904;28;4310;-63
2022/11/05 00:52:54;;;;;;;17.10;13.05;;;;;;;6.60;100.00;100693.91;687162;28;1099;-64
2022/11/05 00:53:14;;;;;;;16.55;12.63;;;;;;;6.62;100.00;100697.44;686523;28;1235;-63
2022/11/05 00:53:35;;;;;;;16.83;13.02;;;;;;;6.57;100.00;100691.28;687689;28;1390;-64
2022/11/05 00:53:55;;;;;;;18.50;13.50;;;;;;;6.46;100.00;100693.75;687835;28;1450;-64
2022/11/05 00:54:15;;;;;;;18.60;13.70;;;;;;;6.45;100.00;100696.34;689594;28;1313;-64
2022/11/05 00:54:36;;;;;;;16.77;13.30;;;;;;;6.45;100.00;100686.84;689848;28;1436;-64
2022/11/05 00:54:56;;;;;;;17.43;13.73;;;;;;;6.44;100.00;100697.22;689477;28;4322;-64
2022/11/05 00:55:16;;;;;;;18.33;13.80;;;;;;;6.44;100.00;100700.66;689776;28;1278;-64
2022/11/05 00:55:39;;;;;;;18.80;14.13;;;;;;;6.42;100.00;100691.97;689999;28;1456;-65
2022/11/05 00:56:00;;;;;;;20.55;14.20;;;;;;;6.39;100.00;100694.53;686864;28;1559;-64
2022/11/05 00:56:21;;;;;;;18.00;13.82;;;;;;;6.40;100.00;100695.44;684399;28;1596;-64
2022/11/05 00:56:41;;;;;;;16.98;12.90;;;;;;;6.46;100.00;100698.09;684751;28;1033;-64
2022/11/05 00:57:01;;;;;;;18.03;13.63;;;;;;;6.42;100.00;100691.09;687325;28;1342;-64
2022/11/05 00:57:22;;;;;;;18.33;14.70;;;;;;;6.32;100.00;100695.31;687122;28;1914;-64
2022/11/05 00:57:42;;;;;;;19.30;14.50;;;;;;;6.28;100.00;100693.53;687095;28;4574;-63
2022/11/05 00:58:08;;;;;;;19.50;14.30;;;;;;;6.27;100.00;100694.38;687638;28;1119;-64
2022/11/05 00:58:28;;;;;;;19.20;14.40;;;;;;;6.25;100.00;100688.31;687017;28;1257;-64
2022/11/05 00:58:48;;;;;;;18.77;14.30;;;;;;;6.26;100.00;100690.91;687585;28;1231;-64
2022/11/05 00:59:09;;;;;;;20.52;14.73;;;;;;;6.26;100.00;100700.44;687248;28;1406;-64
2022/11/05 00:59:29;;;;;;;19.87;14.90;;;;;;;6.25;100.00;100688.31;687673;28;1156;-64
2022/11/05 00:59:49;;;;;;;18.83;14.60;;;;;;;6.24;100.00;100696.94;687620;28;994;-64
2022/11/05 01:00:11;;;;;;;18.25;14.52;;;;;;;6.25;100.00;100693.50;687302;28;1155;-64
2022/11/05 01:00:33;;;;;;;17.77;13.98;;;;;;;6.29;100.00;100690.94;687484;28;1129;-63
2022/11/05 01:00:55;;;;;;;18.15;13.60;;;;;;;6.35;100.00;100694.47;687086;28;4379;-63
2022/11/05 01:01:16;;;;;;;19.10;14.65;;;;;;;6.32;100.00;100691.84;689693;28;1234;-64
2022/11/05 01:01:36;;;;;;;18.23;14.73;;;;;;;6.28;100.00;100693.53;690184;28;1381;-63
2022/11/05 01:01:56;;;;;;;17.45;14.25;;;;;;;6.28;100.00;100693.53;689947;28;1319;-64
2022/11/05 01:02:17;;;;;;;17.07;13.60;;;;;;;6.35;100.00;100699.69;689394;28;1270;-64
2022/11/05 01:02:37;;;;;;;16.27;13.23;;;;;;;6.39;100.00;100697.13;689733;28;1382;-64
2022/11/05 01:03:03;;;;;;;18.17;13.80;;;;;;;6.48;100.00;100692.06;689967;28;1456;-64
2022/11/05 01:03:27;;;;;;;17.33;13.43;;;;;;;6.56;100.00;100696.47;687221;28;1432;-64
2022/11/05 01:03:48;;;;;;;18.80;13.45;;;;;;;6.52;100.00;100697.28;687172;28;4400;-64
2022/11/05 01:04:08;;;;;;;17.27;12.90;;;;;;;6.50;100.00;100699.88;687182;28;1156;-64
2022/11/05 01:04:29;;;;;;;18.33;13.70;;;;;;;6.52;100.00;100698.19;687264;28;1211;-64
2022/11/05 01:04:49;;;;;;;17.43;13.97;;;;;;;6.57;100.00;100696.47;687390;28;1305;-64
2022/11/05 01:05:09;;;;;;;18.30;14.50;;;;;;;6.63;100.00;100698.28;686742;28;1084;-64
2022/11/05 01:05:31;;;;;;;19.83;14.37;;;;;;;6.60;100.00;100693.06;687555;28;1278;-64
2022/11/05 01:05:54;;;;;;;17.95;13.63;;;;;;;6.51;100.00;100700.72;687684;28;1502;-63
2022/11/05 01:06:16;;;;;;;17.38;13.73;;;;;;;6.44;100.00;100690.28;687360;28;1297;-64
2022/11/05 01:06:36;;;;;;;18.50;14.07;;;;;;;6.40;100.00;100692.81;686953;28;1244;-64
2022/11/05 01:06:56;;;;;;;17.58;13.55;;;;;;;6.36;100.00;100694.50;686631;28;4501;-64
2022/11/05 01:07:17;;;;;;;19.57;13.53;;;;;;;6.32;100.00;100692.72;687844;28;1351;-64
2022/11/05 01:07:37;;;;;;;18.77;13.70;;;;;;;6.22;100.00;100693.47;687265;28;1278;-64
2022/11/05 01:07:58;;;;;;;17.95;13.75;;;;;;;6.13;100.00;100691.59;687420;28;1397;-64
2022/11/05 01:08:19;;;;;;;17.58;13.90;;;;;;;6.05;100.00;100694.09;686984;28;1448;-64
2022/11/05 01:08:42;;;;;;;17.40;14.10;;;;;;;6.01;100.00;100688.81;686577;28;1334;-63
2022/11/05 01:09:02;;;;;;;17.90;13.52;;;;;;;5.99;100.00;100696.59;687010;28;1124;-63
2022/11/05 01:09:22;;;;;;;19.20;14.00;;;;;;;5.97;100.00;100698.25;687454;28;1175;-64
2022/11/05 01:09:43;;;;;;;18.48;13.90;;;;;;;5.95;100.00;100695.66;686965;28;4433;-65
2022/11/05 01:10:04;;;;;;;17.20;13.43;;;;;;;5.96;100.00;100701.69;687066;28;1525;-64
2022/11/05 01:10:25;;;;;;;16.95;13.68;;;;;;;6.00;100.00;100698.34;687046;28;1242;-63
2022/11/05 01:10:51;;;;;;;17.73;13.63;;;;;;;6.07;100.00;100689.78;687359;28;1284;-64
2022/11/05 01:11:32;;;;;;;19.45;13.75;;;;;;;6.07;100.00;100694.97;686467;28;1270;-63
2022/11/05 01:11:53;;;;;;;18.98;14.07;;;;;;;6.08;100.00;100707.09;686476;28;1322;-64
2022/11/05 01:12:14;;;;;;;18.02;14.02;;;;;;;6.06;100.00;100693.22;686282;28;1204;-64
2022/11/05 01:12:34;;;;;;;17.53;13.63;;;;;;;6.09;100.00;100697.59;687371;28;1537;-64
2022/11/05 01:12:55;;;;;;;17.40;13.43;;;;;;;6.11;100.00;100701.94;687092;28;4685;-64
2022/11/05 01:13:18;;;;;;;18.00;13.50;;;;;;;6.09;100.00;100698.47;686829;28;1314;-64
2022/11/05 01:13:39;;;;;;;17.75;13.77;;;;;;;6.02;100.00;100704.41;687497;28;1511;-64
2022/11/05 01:14:01;;;;;;;18.10;13.98;;;;;;;5.97;100.00;100703.47;687569;28;1191;-64
2022/11/05 01:14:22;;;;;;;18.45;13.93;;;;;;;5.94;100.00;100704.28;686594;28;1332;-64
2022/11/05 01:14:42;;;;;;;17.90;13.73;;;;;;;5.94;100.00;100703.38;687234;28;1176;-64
2022/11/05 01:15:03;;;;;;;18.37;12.97;;;;;;;5.93;100.00;100706.84;687492;28;1565;-64
2022/11/05 01:15:23;;;;;;;18.88;13.30;;;;;;;5.92;100.00;100711.16;686201;28;1245;-64
2022/11/05 01:15:45;;;;;;;18.70;13.70;;;;;;;5.92;100.00;100705.09;686834;28;4408;-63
2022/11/05 01:16:08;;;;;;;20.13;13.85;;;;;;;5.90;100.00;100706.81;687364;28;1332;-63
2022/11/05 01:16:28;;;;;;;19.27;13.90;;;;;;;5.88;100.00;100709.34;686197;28;3523;-64
2022/11/05 01:16:49;;;;;;;18.73;13.55;;;;;;;5.86;100.00;100703.28;684614;28;1251;-64
2022/11/05 01:17:09;;;;;;;19.47;13.80;;;;;;;5.86;100.00;100707.63;684142;28;1267;-64
2022/11/05 01:17:29;;;;;;;16.40;13.33;;;;;;;5.87;100.00;100706.75;684743;28;1915;-63
2022/11/05 01:17:51;;;;;;;19.20;13.40;;;;;;;5.91;100.00;100713.72;684796;28;1088;-63
2022/11/05 01:18:11;;;;;;;18.00;13.02;;;;;;;5.94;100.00;100714.66;683938;28;1139;-64
2022/11/05 01:18:32;;;;;;;17.27;13.20;;;;;;;6.01;100.00;100712.16;684801;28;1354;-63
2022/11/05 01:18:52;;;;;;;15.90;13.18;;;;;;;6.09;100.00;100711.44;685893;28;4445;-64
2022/11/05 01:19:13;;;;;;;16.90;13.00;;;;;;;6.11;100.00;100712.34;686908;28;1303;-63
2022/11/05 01:19:33;;;;;;;19.02;13.40;;;;;;;6.04;100.00;100715.69;686502;28;1231;-63
2022/11/05 01:19:54;;;;;;;18.13;13.50;;;;;;;5.97;100.00;100713.84;687332;28;1226;-64
2022/11/05 01:20:15;;;;;;;18.10;13.52;;;;;;;5.89;100.00;100711.09;686952;28;1287;-64
2022/11/05 01:20:35;;;;;;;18.75;13.20;;;;;;;5.81;100.00;100717.91;687061;28;1154;-64
2022/11/05 01:20:56;;;;;;;19.73;13.13;;;;;;;5.72;100.00;100708.25;687275;28;1274;-64
2022/11/05 01:21:16;;;;;;;17.35;12.93;;;;;;;5.66;100.00;100708.16;687284;28;1385;-64
2022/11/05 01:21:37;;;;;;;19.03;13.50;;;;;;;5.66;100.00;100710.75;687347;28;1227;-63
2022/11/05 01:21:57;;;;;;;17.73;13.13;;;;;;;5.66;100.00;100721.13;689600;28;4337;-63
2022/11/05 01:22:17;;;;;;;18.07;12.87;;;;;;;5.67;100.00;100706.44;689566;28;1464;-63
2022/11/05 01:22:38;;;;;;;19.02;13.63;;;;;;;5.69;100.00;100709.94;689941;28;1464;-64
2022/11/05 01:22:58;;;;;;;19.30;13.57;;;;;;;5.72;100.00;100716.06;690118;28;1445;-64
2022/11/05 01:23:19;;;;;;;18.33;13.63;;;;;;;5.74;100.00;100706.56;689610;28;1298;-64
2022/11/05 01:23:39;;;;;;;17.90;13.07;;;;;;;5.80;100.00;100711.84;689756;28;1421;-63
2022/11/05 01:24:00;;;;;;;16.27;13.17;;;;;;;5.93;100.00;100709.44;689831;28;1353;-64
2022/11/05 01:24:20;;;;;;;17.55;13.48;;;;;;;6.03;100.00;100711.34;687334;28;1180;-64
2022/11/05 01:24:41;;;;;;;19.27;13.27;;;;;;;6.13;100.00;100709.75;686690;28;4493;-64
2022/11/05 01:25:02;;;;;;;18.13;13.00;;;;;;;6.22;100.00;100709.91;684584;28;1296;-63
2022/11/05 01:25:22;;;;;;;16.80;12.87;;;;;;;6.26;100.00;100703.03;684610;28;1211;-63
2022/11/05 01:25:43;;;;;;;15.63;12.68;;;;;;;6.27;100.00;100713.44;684054;28;1231;-63
2022/11/05 01:26:03;;;;;;;15.05;12.07;;;;;;;6.25;100.00;100711.66;684729;28;1191;-64
2022/11/05 01:26:25;;;;;;;16.40;12.40;;;;;;;6.16;100.00;100720.19;684163;28;1097;-64
2022/11/05 01:26:46;;;;;;;17.17;12.65;;;;;;;6.05;100.00;100712.25;684499;28;1259;-64
2022/11/05 01:27:06;;;;;;;17.77;12.32;;;;;;;5.97;100.00;100713.84;681833;29;1136;-64
2022/11/05 01:27:26;;;;;;;16.43;12.10;;;;;;;5.93;100.00;100707.72;682124;28;1120;-65
2022/11/05 01:27:47;;;;;;;17.48;12.85;;;;;;;5.92;100.00;100718.06;680939;28;4551;-64
2022/11/05 01:28:08;;;;;;;17.83;12.77;;;;;;;5.88;100.00;100716.28;681884;28;1358;-63
2022/11/05 01:28:29;;;;;;;17.58;12.35;;;;;;;5.80;100.00;100717.03;681994;29;1291;-64
2022/11/05 01:28:59;;;;;;;16.17;11.90;;;;;;;5.72;100.00;100716.06;682578;28;1311;-64
2022/11/05 01:29:19;;;;;;;16.80;12.15;;;;;;;5.71;100.00;100711.69;684280;28;1434;-63
2022/11/05 01:29:40;;;;;;;16.40;12.07;;;;;;;5.73;100.00;100715.22;684478;28;1413;-63
2022/11/05 01:30:01;;;;;;;16.92;12.48;;;;;;;5.77;100.00;100722.19;684662;28;1434;-64
2022/11/05 01:30:21;;;;;;;15.87;12.23;;;;;;;5.82;100.00;100708.41;684703;28;1429;-64
2022/11/05 01:30:41;;;;;;;16.48;12.07;;;;;;;5.84;100.00;100709.31;683844;28;4382;-64
2022/11/05 01:31:02;;;;;;;15.70;11.60;;;;;;;5.86;100.00;100712.81;684647;28;1061;-64
2022/11/05 01:31:23;;;;;;;17.02;12.32;;;;;;;5.85;100.00;100716.25;684568;28;1180;-64
2022/11/05 01:31:43;;;;;;;19.10;12.45;;;;;;;5.82;100.00;100713.59;684899;28;1167;-64
2022/11/05 01:32:04;;;;;;;20.33;12.83;;;;;;;5.80;100.00;100722.22;684533;28;1135;-63
2022/11/05 01:32:24;;;;;;;20.95;12.05;;;;;;;5.78;100.00;100723.91;684532;28;1134;-64
2022/11/05 01:32:45;;;;;;;18.27;12.10;;;;;;;5.76;100.00;100716.94;684862;28;1168;-64
2022/11/05 01:33:06;;;;;;;19.77;12.60;;;;;;;5.74;100.00;100716.94;684471;28;1216;-64
2022/11/05 01:33:26;;;;;;;20.13;13.02;;;;;;;5.71;100.00;100719.47;684592;28;1116;-64
2022/11/05 01:33:46;;;;;;;19.03;12.53;;;;;;;5.69;100.00;100712.53;686023;28;4551;-64
2022/11/05 01:34:07;;;;;;;21.75;12.63;;;;;;;5.69;100.00;100712.53;685385;28;1146;-64
2022/11/05 01:34:27;;;;;;;18.70;12.90;;;;;;;5.68;100.00;100719.44;687499;28;1230;-64
2022/11/05 01:34:48;;;;;;;16.65;13.07;;;;;;;5.67;100.00;100722.88;687281;28;1297;-64
2022/11/05 01:35:12;;;;;;;16.93;12.90;;;;;;;5.67;100.00;100722.88;687071;28;1087;-64
2022/11/05 01:35:33;;;;;;;16.40;12.35;;;;;;;5.69;100.00;100721.19;686300;28;1214;-64
2022/11/05 01:35:53;;;;;;;16.52;12.10;;;;;;;5.69;100.00;100712.53;683992;28;1416;-64
2022/11/05 01:36:14;;;;;;;16.67;12.70;;;;;;;5.72;100.00;100718.63;683539;28;1452;-64
2022/11/05 01:36:34;;;;;;;15.63;12.67;;;;;;;5.77;100.00;100717.00;684663;28;1285;-64
2022/11/05 01:36:54;;;;;;;16.92;12.63;;;;;;;5.85;100.00;100729.22;686615;28;4313;-64
2022/11/05 01:37:15;;;;;;;15.93;12.27;;;;;;;5.90;100.00;100723.25;687132;28;1405;-64
2022/11/05 01:37:35;;;;;;;14.95;11.98;;;;;;;5.92;100.00;100726.72;686774;28;1903;-63
2022/11/05 01:37:59;;;;;;;15.33;12.17;;;;;;;5.93;100.00;100728.47;687249;28;1294;-64
2022/11/05 01:38:19;;;;;;;17.58;12.55;;;;;;;5.91;100.00;100725.00;683581;28;1134;-63
2022/11/05 01:38:40;;;;;;;19.37;12.40;;;;;;;5.91;100.00;100729.28;684352;28;1425;-64
2022/11/05 01:39:00;;;;;;;30.60;13.32;;;;;;;5.84;100.00;100727.47;684496;28;4984;-63
2022/11/05 01:39:21;;;;;;;32.22;14.10;;;;;;;5.84;100.00;100723.13;684268;28;1685;-63
2022/11/05 01:39:41;;;;;;;24.20;13.80;;;;;;;5.83;100.00;100725.72;684056;28;4543;-64
2022/11/05 01:40:02;;;;;;;22.27;13.77;;;;;;;5.84;100.00;100730.06;684592;28;1132;-64
2022/11/05 01:40:24;;;;;;;21.73;12.80;;;;;;;5.90;100.00;100724.97;684132;28;1104;-64
2022/11/05 01:40:44;;;;;;;20.08;13.43;;;;;;;5.93;100.00;100730.22;684810;28;1108;-64
2022/11/05 01:41:05;;;;;;;21.38;13.68;;;;;;;5.90;100.00;100727.56;684700;28;1093;-63
2022/11/05 01:41:25;;;;;;;24.65;14.20;;;;;;;5.84;100.00;100730.06;684331;28;1200;-65
2022/11/05 01:41:46;;;;;;;24.90;14.23;;;;;;;5.84;100.00;100730.06;684498;28;1223;-63
2022/11/05 01:42:26;;;;;;;21.40;13.93;;;;;;;5.82;100.00;100736.97;684636;28;1089;-63
2022/11/05 01:42:46;;;;;;;20.25;13.88;;;;;;;5.76;100.00;100728.22;680713;28;4408;-64
2022/11/05 01:43:14;;;;;;;21.00;13.47;;;;;;;5.72;100.00;100730.72;681746;28;1252;-64
2022/11/05 01:44:25;;;;;;;19.98;13.18;;;;;;;5.67;100.00;100730.66;683736;28;1733;-64
2022/11/05 01:44:48;;;;;;;21.27;14.07;;;;;;;5.71;100.00;100731.59;678725;29;1216;-64
2022/11/05 01:45:19;;;;;;;20.05;13.40;;;;;;;5.72;100.00;100735.91;678841;29;1146;-64
2022/11/05 01:45:41;;;;;;;19.48;13.48;;;;;;;5.74;100.00;100732.50;682284;28;4601;-64
2022/11/05 01:46:01;;;;;;;18.85;13.32;;;;;;;5.75;100.00;100735.97;684694;28;1485;-64
2022/11/05 01:46:28;;;;;;;19.30;13.37;;;;;;;5.77;100.00;100729.97;684298;28;1529;-64
2022/11/05 01:46:48;;;;;;;20.27;13.23;;;;;;;5.81;100.00;100733.47;684471;28;1344;-64
2022/11/05 01:47:22;;;;;;;18.92;13.25;;;;;;;5.84;100.00;100730.91;684338;28;1171;-64
2022/11/05 01:48:10;;;;;;;17.27;12.70;;;;;;;5.85;100.00;100734.41;683184;28;1120;-64
2022/11/05 01:48:34;;;;;;;19.33;13.48;;;;;;;5.74;100.00;100737.69;681900;28;1136;-63
2022/11/05 01:48:58;;;;;;;16.55;12.52;;;;;;;5.78;100.00;100742.06;684344;28;4505;-64
2022/11/05 01:49:30;;;;;;;17.05;12.50;;;;;;;5.80;100.00;100737.78;678485;29;1423;-63
2022/11/05 01:49:50;;;;;;;17.55;12.43;;;;;;;5.83;100.00;100736.97;678781;29;1093;-64
2022/11/05 01:50:23;;;;;;;15.82;11.73;;;;;;;5.90;100.00;100732.75;679017;29;1062;-64
2022/11/05 01:51:10;;;;;;;16.35;12.00;;;;;;;5.94;100.00;100739.72;680944;29;1104;-64
2022/11/05 01:51:30;;;;;;;16.33;11.52;;;;;;;5.98;100.00;100731.16;684281;28;1245;-64
2022/11/05 01:51:51;;;;;;;15.15;11.40;;;;;;;5.93;100.00;100740.59;684053;28;4383;-63
2022/11/05 01:52:11;;;;;;;14.97;11.07;;;;;;;5.84;100.00;100738.69;684653;28;1052;-64
2022/11/05 01:52:34;;;;;;;14.73;11.30;;;;;;;5.90;100.00;100737.94;684812;28;1263;-64
2022/11/05 01:53:04;;;;;;;13.52;10.82;;;;;;;5.82;100.00;100744.75;684205;28;1202;-64
2022/11/05 01:53:27;;;;;;;13.65;11.00;;;;;;;5.74;100.00;100748.06;684554;28;1361;-63
2022/11/05 01:54:00;;;;;;;13.50;11.05;;;;;;;5.78;100.00;100749.84;684424;28;1210;-63
2022/11/05 01:54:25;;;;;;;12.85;10.80;;;;;;;5.88;100.00;100734.44;684368;28;1457;-63
2022/11/05 01:54:46;;;;;;;14.60;11.05;;;;;;;5.92;100.00;100746.63;683658;28;4756;-64
2022/11/05 01:55:09;;;;;;;13.40;10.77;;;;;;;5.97;100.00;100747.56;684824;28;1697;-64
2022/11/05 01:55:34;;;;;;;13.32;10.85;;;;;;;5.95;100.00;100746.66;684395;28;1264;-64
2022/11/05 01:55:59;;;;;;;13.25;10.90;;;;;;;5.89;100.00;100746.56;684594;28;1452;-64
2022/11/05 01:56:25;;;;;;;13.25;10.98;;;;;;;5.86;100.00;100741.34;683525;28;1219;-64
2022/11/05 01:56:52;;;;;;;12.63;10.48;;;;;;;5.80;100.00;100747.28;681370;28;1356;-64
2022/11/05 01:57:13;;;;;;;13.13;11.02;;;;;;;5.75;100.00;100743.75;681602;28;1426;-64
2022/11/05 01:57:34;;;;;;;13.80;11.45;;;;;;;5.74;100.00;100747.19;681035;29;1914;-64
2022/11/05 01:57:57;;;;;;;12.93;11.03;;;;;;;5.74;100.00;100747.19;683880;28;4702;-64
2022/11/05 01:58:21;;;;;;;12.40;10.20;;;;;;;5.74;100.00;100745.47;684407;28;1279;-64
2022/11/05 01:58:54;;;;;;;13.55;11.15;;;;;;;5.70;100.00;100738.47;686576;28;1160;-64
2022/11/05 01:59:24;;;;;;;14.38;11.20;;;;;;;5.70;100.00;100748.84;686791;28;1310;-64
2022/11/05 01:59:54;;;;;;;14.40;11.63;;;;;;;5.68;100.00;100744.50;684858;28;1163;-63
2022/11/05 02:00:15;;;;;;;13.65;10.85;;;;;;;5.72;100.00;100744.59;684087;28;1314;-63
2022/11/05 02:00:36;;;;;;;12.43;10.68;;;;;;;5.80;100.00;100748.19;684158;28;1278;-63
2022/11/05 02:00:56;;;;;;;13.77;11.23;;;;;;;5.84;100.00;100750.81;684218;28;4341;-64
2022/11/05 02:01:18;;;;;;;13.73;11.07;;;;;;;5.82;100.00;100749.94;684330;28;1278;-63
2022/11/05 02:01:38;;;;;;;14.30;11.63;;;;;;;5.78;100.00;100749.00;684545;28;1280;-64
2022/11/05 02:02:00;;;;;;;14.53;11.60;;;;;;;5.77;100.00;100747.25;684655;28;1453;-64
2022/11/05 02:02:23;;;;;;;14.52;11.48;;;;;;;5.76;100.00;100746.38;684687;28;1450;-64
2022/11/05 02:02:44;;;;;;;15.32;11.57;;;;;;;5.75;100.00;100754.13;684670;28;1108;-64
2022/11/05 02:03:04;;;;;;;16.47;11.30;;;;;;;5.74;100.00;100748.06;684249;28;1230;-64
2022/11/05 02:03:25;;;;;;;15.60;11.20;;;;;;;5.75;100.00;100749.81;684573;28;1271;-63
2022/11/05 02:03:49;;;;;;;14.40;11.55;;;;;;;5.74;100.00;100749.78;683933;28;4404;-63
2022/11/05 02:04:15;;;;;;;14.00;11.90;;;;;;;5.74;100.00;100749.78;684558;28;1338;-64
2022/11/05 02:04:42;;;;;;;14.60;11.68;;;;;;;5.77;100.00;100758.50;684708;28;1271;-63
2022/11/05 02:05:05;;;;;;;13.50;10.80;;;;;;;5.82;100.00;100755.13;684666;28;1100;-63
2022/11/05 02:05:26;;;;;;;13.38;11.00;;;;;;;5.86;100.00;100751.72;683998;28;1109;-63
2022/11/05 02:05:48;;;;;;;12.98;10.70;;;;;;;5.89;100.00;100755.22;684482;28;1322;-64
2022/11/05 02:06:09;;;;;;;13.65;11.63;;;;;;;5.90;100.00;100753.53;684219;28;1195;-64
2022/11/05 02:06:32;;;;;;;14.43;12.07;;;;;;;5.87;100.00;100751.75;684418;28;1158;-64
2022/11/05 02:06:53;;;;;;;14.20;11.57;;;;;;;5.85;100.00;100756.03;683151;28;4385;-64
2022/11/05 02:07:14;;;;;;;15.07;11.63;;;;;;;5.84;100.00;100754.25;682072;28;1256;-64
2022/11/05 02:07:34;;;;;;;15.27;11.70;;;;;;;5.83;100.00;100756.84;684193;28;1262;-64
2022/11/05 02:07:55;;;;;;;15.90;12.07;;;;;;;5.83;100.00;100756.84;684703;28;1278;-64